sensor_id;sensor_type;location;lat;lon;timestamp;temperature;humidity
14709;DHT22;7445;50.774;4.944;2023-07-20T07:01:08;18.70;99.90
14709;DHT22;7445;50.774;4.944;2023-07-20T07:03:35;18.70;98.60
14709;DHT22;7445;50.774;4.944;2023-07-20T07:06:02;18.60;99.90
14709;DHT22;7445;50.774;4.944;2023-07-20T07:08:27;18.70;98.10
14709;DHT22;7445;50.774;4.944;2023-07-20T07:10:53;18.70;99.90
14709;DHT22;7445;50.774;4.944;2023-07-20T07:13:19;18.70;96.80
14709;DHT22;7445;50.774;4.944;2023-07-20T07:15:45;18.80;99.90
14709;DHT22;7445;50.774;4.944;2023-07-20T07:18:11;18.80;96.90
14709;DHT22;7445;50.774;4.944;2023-07-20T07:20:37;18.80;92.90
14709;DHT22;7445;50.774;4.944;2023-07-20T07:23:04;18.80;95.10
14709;DHT22;7445;50.774;4.944;2023-07-20T07:25:30;18.80;95.40
14709;DHT22;7445;50.774;4.944;2023-07-20T07:27:58;18.90;93.80
14709;DHT22;7445;50.774;4.944;2023-07-20T07:30:30;19.00;89.70
14709;DHT22;7445;50.774;4.944;2023-07-20T07:32:57;19.10;90.00
14709;DHT22;7445;50.774;4.944;2023-07-20T07:35:50;19.00;82.70
14709;DHT22;7445;50.774;4.944;2023-07-20T07:41:42;19.20;75.40
14709;DHT22;7445;50.774;4.944;2023-07-20T07:44:38;19.40;91.90
14709;DHT22;7445;50.774;4.944;2023-07-20T07:47:13;19.50;85.10
14709;DHT22;7445;50.774;4.944;2023-07-20T07:49:42;19.50;82.20
14709;DHT22;7445;50.774;4.944;2023-07-20T07:52:08;19.60;78.20
14709;DHT22;7445;50.774;4.944;2023-07-20T07:54:33;19.60;88.60
14709;DHT22;7445;50.774;4.944;2023-07-20T07:57:22;19.50;66.20
14709;DHT22;7445;50.774;4.944;2023-07-20T07:59:49;19.70;78.20
14709;DHT22;7445;50.774;4.944;2023-07-20T08:02:21;19.90;74.70
14709;DHT22;7445;50.774;4.944;2023-07-20T08:04:54;20.10;60.60
14709;DHT22;7445;50.774;4.944;2023-07-20T08:07:19;20.20;49.30
14709;DHT22;7445;50.774;4.944;2023-07-20T08:10:00;20.30;35.10
14709;DHT22;7445;50.774;4.944;2023-07-20T08:12:29;20.30;40.30
14709;DHT22;7445;50.774;4.944;2023-07-20T08:14:58;20.40;53.90
14709;DHT22;7445;50.774;4.944;2023-07-20T08:17:24;20.70;30.00
14709;DHT22;7445;50.774;4.944;2023-07-20T08:19:50;20.90;20.80
14709;DHT22;7445;50.774;4.944;2023-07-20T08:22:15;20.90;25.10
14709;DHT22;7445;50.774;4.944;2023-07-20T08:24:49;20.70;9.10
14709;DHT22;7445;50.774;4.944;2023-07-20T08:27:14;20.80;16.90
14709;DHT22;7445;50.774;4.944;2023-07-20T08:29:40;20.80;10.40
14709;DHT22;7445;50.774;4.944;2023-07-20T08:32:09;20.70;12.00
14709;DHT22;7445;50.774;4.944;2023-07-20T08:34:54;20.60;25.00
14709;DHT22;7445;50.774;4.944;2023-07-20T08:37:20;20.70;29.80
14709;DHT22;7445;50.774;4.944;2023-07-20T08:40:04;20.90;24.90
14709;DHT22;7445;50.774;4.944;2023-07-20T08:42:34;21.40;1.00
14709;DHT22;7445;50.774;4.944;2023-07-20T08:45:09;22.10;1.00
14709;DHT22;7445;50.774;4.944;2023-07-20T08:47:38;22.40;1.00
14709;DHT22;7445;50.774;4.944;2023-07-20T08:50:07;22.80;1.00
14709;DHT22;7445;50.774;4.944;2023-07-20T08:52:41;23.20;1.00
14709;DHT22;7445;50.774;4.944;2023-07-20T08:55:12;23.30;1.00
14709;DHT22;7445;50.774;4.944;2023-07-20T08:57:43;23.50;1.00
14709;DHT22;7445;50.774;4.944;2023-07-20T09:00:16;23.60;1.00
14709;DHT22;7445;50.774;4.944;2023-07-20T09:02:45;23.70;1.00
14709;DHT22;7445;50.774;4.944;2023-07-20T09:05:10;23.60;1.00
14709;DHT22;7445;50.774;4.944;2023-07-20T09:08:07;23.40;1.00
14709;DHT22;7445;50.774;4.944;2023-07-20T09:10:33;23.10;1.00
14709;DHT22;7445;50.774;4.944;2023-07-20T09:12:59;23.00;1.00
14709;DHT22;7445;50.774;4.944;2023-07-20T09:15:29;23.10;1.00
14709;DHT22;7445;50.774;4.944;2023-07-20T09:18:04;23.40;1.00
14709;DHT22;7445;50.774;4.944;2023-07-20T09:20:33;23.60;1.00
14709;DHT22;7445;50.774;4.944;2023-07-20T09:23:00;23.80;1.00
14709;DHT22;7445;50.774;4.944;2023-07-20T09:25:29;23.70;1.00
14709;DHT22;7445;50.774;4.944;2023-07-20T09:28:20;23.30;1.00
14709;DHT22;7445;50.774;4.944;2023-07-20T09:31:15;23.40;1.00
14709;DHT22;7445;50.774;4.944;2023-07-20T09:33:50;23.50;1.00
14709;DHT22;7445;50.774;4.944;2023-07-20T09:36:26;23.50;1.00
14709;DHT22;7445;50.774;4.944;2023-07-20T09:39:02;23.60;1.00
14709;DHT22;7445;50.774;4.944;2023-07-20T09:41:29;23.70;1.00
14709;DHT22;7445;50.774;4.944;2023-07-20T09:43:58;24.00;1.00
14709;DHT22;7445;50.774;4.944;2023-07-20T09:47:04;24.40;1.00
14709;DHT22;7445;50.774;4.944;2023-07-20T09:49:40;24.50;1.00
14709;DHT22;7445;50.774;4.944;2023-07-20T09:52:11;24.70;1.00
14709;DHT22;7445;50.774;4.944;2023-07-20T09:54:38;23.90;1.00
14709;DHT22;7445;50.774;4.944;2023-07-20T09:57:12;24.00;1.00
14709;DHT22;7445;50.774;4.944;2023-07-20T09:59:40;24.20;1.00
14709;DHT22;7445;50.774;4.944;2023-07-20T10:02:22;24.10;1.00
14709;DHT22;7445;50.774;4.944;2023-07-20T10:04:53;23.60;1.00
14709;DHT22;7445;50.774;4.944;2023-07-20T10:07:19;23.60;1.00
14709;DHT22;7445;50.774;4.944;2023-07-20T10:09:55;24.00;1.00
14709;DHT22;7445;50.774;4.944;2023-07-20T10:12:36;24.00;1.00
14709;DHT22;7445;50.774;4.944;2023-07-20T10:15:37;24.20;1.00
14709;DHT22;7445;50.774;4.944;2023-07-20T10:18:18;24.50;1.00
14709;DHT22;7445;50.774;4.944;2023-07-20T10:21:00;24.60;1.00
14709;DHT22;7445;50.774;4.944;2023-07-20T10:23:29;24.90;1.00
14709;DHT22;7445;50.774;4.944;2023-07-20T10:26:01;25.00;1.00
14709;DHT22;7445;50.774;4.944;2023-07-20T10:28:38;24.20;1.00
14709;DHT22;7445;50.774;4.944;2023-07-20T10:31:08;23.80;1.00
14709;DHT22;7445;50.774;4.944;2023-07-20T11:04:44;25.70;1.00
14709;DHT22;7445;50.774;4.944;2023-07-20T11:07:15;25.60;1.00
14709;DHT22;7445;50.774;4.944;2023-07-20T11:09:41;25.70;1.00
14709;DHT22;7445;50.774;4.944;2023-07-20T11:12:18;25.40;1.00
14709;DHT22;7445;50.774;4.944;2023-07-20T11:14:55;25.50;1.00
14709;DHT22;7445;50.774;4.944;2023-07-20T11:17:31;25.30;1.00
14709;DHT22;7445;50.774;4.944;2023-07-20T11:19:59;25.30;1.00
14709;DHT22;7445;50.774;4.944;2023-07-20T11:22:26;25.20;1.00
14709;DHT22;7445;50.774;4.944;2023-07-20T11:24:56;24.80;1.00
14709;DHT22;7445;50.774;4.944;2023-07-20T11:27:21;24.60;1.00
14709;DHT22;7445;50.774;4.944;2023-07-20T11:29:51;24.30;1.00
14709;DHT22;7445;50.774;4.944;2023-07-20T11:32:23;23.90;1.00
14709;DHT22;7445;50.774;4.944;2023-07-20T11:34:50;24.00;1.00
14709;DHT22;7445;50.774;4.944;2023-07-20T11:37:17;24.70;1.00
14709;DHT22;7445;50.774;4.944;2023-07-20T11:39:43;25.10;1.00
14709;DHT22;7445;50.774;4.944;2023-07-20T11:42:09;25.60;1.00
14709;DHT22;7445;50.774;4.944;2023-07-20T11:44:35;25.60;1.00
14709;DHT22;7445;50.774;4.944;2023-07-20T11:47:07;25.30;1.00
14709;DHT22;7445;50.774;4.944;2023-07-20T11:49:43;25.30;1.00
14709;DHT22;7445;50.774;4.944;2023-07-20T11:52:15;25.90;1.00
14709;DHT22;7445;50.774;4.944;2023-07-20T11:54:42;26.10;1.00
14709;DHT22;7445;50.774;4.944;2023-07-20T11:57:19;26.60;1.00
14709;DHT22;7445;50.774;4.944;2023-07-20T11:59:57;26.40;1.00
14709;DHT22;7445;50.774;4.944;2023-07-20T12:02:26;25.60;1.00
14709;DHT22;7445;50.774;4.944;2023-07-20T12:04:54;25.10;1.00
14709;DHT22;7445;50.774;4.944;2023-07-20T12:07:20;25.80;1.00
14709;DHT22;7445;50.774;4.944;2023-07-20T12:10:07;25.50;1.00
14709;DHT22;7445;50.774;4.944;2023-07-20T12:12:43;25.10;1.00
14709;DHT22;7445;50.774;4.944;2023-07-20T12:15:19;25.30;1.00
14709;DHT22;7445;50.774;4.944;2023-07-20T12:18:00;25.40;1.00
14709;DHT22;7445;50.774;4.944;2023-07-20T12:20:37;25.30;1.00
14709;DHT22;7445;50.774;4.944;2023-07-20T12:23:11;25.30;1.00
14709;DHT22;7445;50.774;4.944;2023-07-20T12:25:37;25.30;1.00
14709;DHT22;7445;50.774;4.944;2023-07-20T12:28:11;25.10;1.00
14709;DHT22;7445;50.774;4.944;2023-07-20T12:30:41;25.00;1.00
14709;DHT22;7445;50.774;4.944;2023-07-20T12:33:07;25.10;1.00
14709;DHT22;7445;50.774;4.944;2023-07-20T12:35:34;25.70;1.00
14709;DHT22;7445;50.774;4.944;2023-07-20T12:38:06;26.40;1.00
14709;DHT22;7445;50.774;4.944;2023-07-20T12:40:33;26.50;1.00
14709;DHT22;7445;50.774;4.944;2023-07-20T12:42:59;26.40;1.00
14709;DHT22;7445;50.774;4.944;2023-07-20T12:45:24;26.10;1.00
14709;DHT22;7445;50.774;4.944;2023-07-20T12:47:54;25.80;1.00
14709;DHT22;7445;50.774;4.944;2023-07-20T12:50:19;25.70;1.00
14709;DHT22;7445;50.774;4.944;2023-07-20T12:52:46;25.80;1.00
14709;DHT22;7445;50.774;4.944;2023-07-20T12:55:12;25.60;1.00
14709;DHT22;7445;50.774;4.944;2023-07-20T12:57:38;25.60;1.00
14709;DHT22;7445;50.774;4.944;2023-07-20T13:00:05;25.70;1.00
14709;DHT22;7445;50.774;4.944;2023-07-20T13:02:32;25.80;1.00
14709;DHT22;7445;50.774;4.944;2023-07-20T13:04:58;26.00;1.00
14709;DHT22;7445;50.774;4.944;2023-07-20T13:07:43;26.10;1.00
14709;DHT22;7445;50.774;4.944;2023-07-20T13:10:10;26.80;1.00
14709;DHT22;7445;50.774;4.944;2023-07-20T13:12:42;27.10;1.00
14709;DHT22;7445;50.774;4.944;2023-07-20T13:15:09;27.30;1.00
14709;DHT22;7445;50.774;4.944;2023-07-20T13:17:37;27.70;1.00
14709;DHT22;7445;50.774;4.944;2023-07-20T13:20:05;28.10;1.00
14709;DHT22;7445;50.774;4.944;2023-07-20T13:22:31;28.50;1.00
14709;DHT22;7445;50.774;4.944;2023-07-20T13:24:59;28.80;1.00
14709;DHT22;7445;50.774;4.944;2023-07-20T13:27:24;29.00;1.00
14709;DHT22;7445;50.774;4.944;2023-07-20T13:29:51;29.00;1.00
14709;DHT22;7445;50.774;4.944;2023-07-20T13:32:17;28.90;1.00
14709;DHT22;7445;50.774;4.944;2023-07-20T13:34:43;28.50;1.00
14709;DHT22;7445;50.774;4.944;2023-07-20T13:37:10;28.40;1.00
14709;DHT22;7445;50.774;4.944;2023-07-20T13:39:36;28.20;1.00
14709;DHT22;7445;50.774;4.944;2023-07-20T13:42:02;28.00;1.00
14709;DHT22;7445;50.774;4.944;2023-07-20T13:44:33;27.30;1.00
14709;DHT22;7445;50.774;4.944;2023-07-20T13:46:59;27.10;1.00
14709;DHT22;7445;50.774;4.944;2023-07-20T13:49:25;26.50;1.00
14709;DHT22;7445;50.774;4.944;2023-07-20T13:51:55;26.40;1.00
14709;DHT22;7445;50.774;4.944;2023-07-20T13:54:21;26.20;1.00
14709;DHT22;7445;50.774;4.944;2023-07-20T13:56:47;26.40;1.00
14709;DHT22;7445;50.774;4.944;2023-07-20T13:59:14;26.50;1.00
14709;DHT22;7445;50.774;4.944;2023-07-20T14:01:40;26.10;1.00
14709;DHT22;7445;50.774;4.944;2023-07-20T14:04:08;26.10;1.00
14709;DHT22;7445;50.774;4.944;2023-07-20T14:06:38;26.10;1.00
14709;DHT22;7445;50.774;4.944;2023-07-20T14:09:04;26.20;1.00
14709;DHT22;7445;50.774;4.944;2023-07-20T14:11:30;25.70;1.00
14709;DHT22;7445;50.774;4.944;2023-07-20T14:13:56;25.40;1.00
14709;DHT22;7445;50.774;4.944;2023-07-20T14:16:28;25.10;1.00
14709;DHT22;7445;50.774;4.944;2023-07-20T14:19:08;24.80;1.00
14709;DHT22;7445;50.774;4.944;2023-07-20T14:21:34;25.00;1.00
14709;DHT22;7445;50.774;4.944;2023-07-20T14:24:05;25.20;1.00
14709;DHT22;7445;50.774;4.944;2023-07-20T14:26:33;25.50;1.00
14709;DHT22;7445;50.774;4.944;2023-07-20T14:28:59;25.40;1.00
14709;DHT22;7445;50.774;4.944;2023-07-20T14:31:24;25.50;1.00
14709;DHT22;7445;50.774;4.944;2023-07-20T14:33:51;25.40;1.00
14709;DHT22;7445;50.774;4.944;2023-07-20T14:36:17;25.10;1.00
14709;DHT22;7445;50.774;4.944;2023-07-20T14:38:44;25.00;1.00
14709;DHT22;7445;50.774;4.944;2023-07-20T14:41:17;24.90;1.00
14709;DHT22;7445;50.774;4.944;2023-07-20T14:43:46;24.90;1.00
14709;DHT22;7445;50.774;4.944;2023-07-20T14:46:13;24.80;1.00
14709;DHT22;7445;50.774;4.944;2023-07-20T14:48:39;24.70;1.00
14709;DHT22;7445;50.774;4.944;2023-07-20T14:51:05;24.50;1.00
14709;DHT22;7445;50.774;4.944;2023-07-20T14:53:30;24.40;1.00
14709;DHT22;7445;50.774;4.944;2023-07-20T14:56:00;24.20;1.00
14709;DHT22;7445;50.774;4.944;2023-07-20T14:58:31;23.90;1.00
14709;DHT22;7445;50.774;4.944;2023-07-20T15:00:57;23.90;1.00
14709;DHT22;7445;50.774;4.944;2023-07-20T15:03:22;23.90;1.00
14709;DHT22;7445;50.774;4.944;2023-07-20T15:05:48;23.90;1.00
14709;DHT22;7445;50.774;4.944;2023-07-20T15:08:14;23.90;1.00
14709;DHT22;7445;50.774;4.944;2023-07-20T15:10:39;23.90;1.00
14709;DHT22;7445;50.774;4.944;2023-07-20T15:13:05;23.80;1.00
14709;DHT22;7445;50.774;4.944;2023-07-20T15:15:38;23.80;1.00
14709;DHT22;7445;50.774;4.944;2023-07-20T15:18:04;23.70;1.00
14709;DHT22;7445;50.774;4.944;2023-07-20T15:20:29;23.70;1.00
14709;DHT22;7445;50.774;4.944;2023-07-20T15:22:57;24.00;1.00
14709;DHT22;7445;50.774;4.944;2023-07-20T15:25:23;24.50;1.00
14709;DHT22;7445;50.774;4.944;2023-07-20T15:27:48;25.00;1.00
14709;DHT22;7445;50.774;4.944;2023-07-20T15:30:14;25.80;1.00
14709;DHT22;7445;50.774;4.944;2023-07-20T15:32:40;26.00;1.00
14709;DHT22;7445;50.774;4.944;2023-07-20T15:35:09;25.70;1.00
14709;DHT22;7445;50.774;4.944;2023-07-20T15:37:35;25.90;1.00
14709;DHT22;7445;50.774;4.944;2023-07-20T15:40:02;26.00;1.00
14709;DHT22;7445;50.774;4.944;2023-07-20T15:42:30;25.90;1.00
14709;DHT22;7445;50.774;4.944;2023-07-20T15:44:56;25.80;1.00
14709;DHT22;7445;50.774;4.944;2023-07-20T15:47:23;25.90;1.00
14709;DHT22;7445;50.774;4.944;2023-07-20T15:49:48;25.80;1.00
14709;DHT22;7445;50.774;4.944;2023-07-20T15:52:14;25.60;1.00
14709;DHT22;7445;50.774;4.944;2023-07-20T15:54:42;25.40;1.00
14709;DHT22;7445;50.774;4.944;2023-07-20T15:57:08;25.70;1.00
14709;DHT22;7445;50.774;4.944;2023-07-20T15:59:34;25.90;1.00
14709;DHT22;7445;50.774;4.944;2023-07-20T16:02:00;26.30;1.00
14709;DHT22;7445;50.774;4.944;2023-07-20T16:04:26;26.00;1.00
14709;DHT22;7445;50.774;4.944;2023-07-20T16:06:52;25.40;1.00
14709;DHT22;7445;50.774;4.944;2023-07-20T16:09:18;24.90;1.00
14709;DHT22;7445;50.774;4.944;2023-07-20T16:11:44;24.60;1.00
14709;DHT22;7445;50.774;4.944;2023-07-20T16:14:10;24.40;1.00
14709;DHT22;7445;50.774;4.944;2023-07-20T16:16:36;24.20;1.00
14709;DHT22;7445;50.774;4.944;2023-07-20T16:19:02;24.00;1.00
14709;DHT22;7445;50.774;4.944;2023-07-20T16:21:27;23.90;1.00
14709;DHT22;7445;50.774;4.944;2023-07-20T16:23:53;23.70;1.00
14709;DHT22;7445;50.774;4.944;2023-07-20T16:26:19;23.60;1.00
14709;DHT22;7445;50.774;4.944;2023-07-20T16:28:45;23.50;1.00
14709;DHT22;7445;50.774;4.944;2023-07-20T16:31:12;23.30;1.00
14709;DHT22;7445;50.774;4.944;2023-07-20T16:33:39;23.30;1.00
14709;DHT22;7445;50.774;4.944;2023-07-20T16:36:09;23.20;1.00
14709;DHT22;7445;50.774;4.944;2023-07-20T16:38:35;23.10;1.00
14709;DHT22;7445;50.774;4.944;2023-07-20T16:41:01;23.00;1.00
14709;DHT22;7445;50.774;4.944;2023-07-20T16:43:26;22.80;1.00
14709;DHT22;7445;50.774;4.944;2023-07-20T16:46:01;22.70;1.00
14709;DHT22;7445;50.774;4.944;2023-07-20T16:48:28;22.50;1.00
14709;DHT22;7445;50.774;4.944;2023-07-20T16:50:54;22.40;1.00
14709;DHT22;7445;50.774;4.944;2023-07-20T16:53:20;22.30;1.00
14709;DHT22;7445;50.774;4.944;2023-07-20T16:55:49;22.10;1.00
14709;DHT22;7445;50.774;4.944;2023-07-20T16:58:19;21.70;1.00
14709;DHT22;7445;50.774;4.944;2023-07-20T17:00:47;21.40;1.00
14709;DHT22;7445;50.774;4.944;2023-07-20T17:03:17;21.10;1.00
14709;DHT22;7445;50.774;4.944;2023-07-20T17:05:43;20.70;1.00
14709;DHT22;7445;50.774;4.944;2023-07-20T17:08:09;20.10;26.80
14709;DHT22;7445;50.774;4.944;2023-07-20T17:10:36;19.40;58.80
14709;DHT22;7445;50.774;4.944;2023-07-20T17:13:01;19.20;89.70
14709;DHT22;7445;50.774;4.944;2023-07-20T17:15:28;18.70;85.80
14709;DHT22;7445;50.774;4.944;2023-07-20T17:17:54;18.50;99.00
14709;DHT22;7445;50.774;4.944;2023-07-20T17:20:20;18.10;99.90
14709;DHT22;7445;50.774;4.944;2023-07-20T17:22:46;18.00;99.90
14709;DHT22;7445;50.774;4.944;2023-07-20T17:25:12;18.00;99.90
14709;DHT22;7445;50.774;4.944;2023-07-20T17:27:38;17.90;99.90
14709;DHT22;7445;50.774;4.944;2023-07-20T17:30:06;17.70;99.90
14709;DHT22;7445;50.774;4.944;2023-07-20T17:32:32;17.50;99.90
14709;DHT22;7445;50.774;4.944;2023-07-20T17:34:58;17.40;99.90
14709;DHT22;7445;50.774;4.944;2023-07-20T17:37:23;17.30;99.90
14709;DHT22;7445;50.774;4.944;2023-07-20T17:39:52;17.40;99.90
14709;DHT22;7445;50.774;4.944;2023-07-20T17:42:19;17.40;99.90
14709;DHT22;7445;50.774;4.944;2023-07-20T17:44:45;17.40;99.90
14709;DHT22;7445;50.774;4.944;2023-07-20T17:47:11;17.50;99.90
14709;DHT22;7445;50.774;4.944;2023-07-20T17:49:37;17.50;99.90
14709;DHT22;7445;50.774;4.944;2023-07-20T17:52:03;17.50;99.90
14709;DHT22;7445;50.774;4.944;2023-07-20T17:54:29;17.60;99.90
14709;DHT22;7445;50.774;4.944;2023-07-20T17:56:55;17.70;99.90
14709;DHT22;7445;50.774;4.944;2023-07-20T17:59:21;17.70;99.90
14709;DHT22;7445;50.774;4.944;2023-07-20T18:01:47;17.70;99.90
14709;DHT22;7445;50.774;4.944;2023-07-20T18:04:12;17.90;99.90
14709;DHT22;7445;50.774;4.944;2023-07-20T18:06:38;17.90;99.90
14709;DHT22;7445;50.774;4.944;2023-07-20T18:09:04;17.80;99.90
14709;DHT22;7445;50.774;4.944;2023-07-20T18:11:32;17.80;99.90
14709;DHT22;7445;50.774;4.944;2023-07-20T18:13:58;17.70;99.90
14709;DHT22;7445;50.774;4.944;2023-07-20T18:16:25;17.80;99.90
14709;DHT22;7445;50.774;4.944;2023-07-20T18:18:50;17.90;99.90
14709;DHT22;7445;50.774;4.944;2023-07-20T18:21:16;18.00;99.90
14709;DHT22;7445;50.774;4.944;2023-07-20T18:23:41;18.00;99.90
14709;DHT22;7445;50.774;4.944;2023-07-20T18:26:07;17.90;99.90
14709;DHT22;7445;50.774;4.944;2023-07-20T18:28:33;17.80;99.90
14709;DHT22;7445;50.774;4.944;2023-07-20T18:31:04;17.90;99.90
14709;DHT22;7445;50.774;4.944;2023-07-20T18:33:30;18.00;99.90
14709;DHT22;7445;50.774;4.944;2023-07-20T18:35:56;18.10;99.90
14709;DHT22;7445;50.774;4.944;2023-07-20T18:38:21;18.30;99.90
14709;DHT22;7445;50.774;4.944;2023-07-20T18:40:48;18.50;99.90
14709;DHT22;7445;50.774;4.944;2023-07-20T18:43:14;18.50;99.90
14709;DHT22;7445;50.774;4.944;2023-07-20T18:45:40;18.70;99.90
14709;DHT22;7445;50.774;4.944;2023-07-20T18:48:06;18.70;99.90
14709;DHT22;7445;50.774;4.944;2023-07-20T18:50:31;18.70;99.90
14709;DHT22;7445;50.774;4.944;2023-07-20T18:52:57;18.80;99.90
14709;DHT22;7445;50.774;4.944;2023-07-20T18:55:26;18.70;99.90
14709;DHT22;7445;50.774;4.944;2023-07-20T18:57:53;18.70;99.90
14709;DHT22;7445;50.774;4.944;2023-07-20T19:00:18;18.60;99.90
14709;DHT22;7445;50.774;4.944;2023-07-20T19:02:44;18.50;99.90
14709;DHT22;7445;50.774;4.944;2023-07-20T19:05:11;18.50;99.90
14709;DHT22;7445;50.774;4.944;2023-07-20T19:07:37;18.50;99.90
14709;DHT22;7445;50.774;4.944;2023-07-20T19:10:03;18.50;99.90
14709;DHT22;7445;50.774;4.944;2023-07-20T19:12:29;18.50;99.90
14709;DHT22;7445;50.774;4.944;2023-07-20T19:14:55;18.50;99.90
14709;DHT22;7445;50.774;4.944;2023-07-20T19:17:21;18.50;99.90
14709;DHT22;7445;50.774;4.944;2023-07-20T19:19:50;18.50;99.90
14709;DHT22;7445;50.774;4.944;2023-07-20T19:22:16;18.40;99.90
14709;DHT22;7445;50.774;4.944;2023-07-20T19:24:42;18.40;99.90
14709;DHT22;7445;50.774;4.944;2023-07-20T19:27:08;18.30;99.90
14709;DHT22;7445;50.774;4.944;2023-07-20T19:29:33;18.20;99.90
14709;DHT22;7445;50.774;4.944;2023-07-20T19:31:59;18.20;99.90
14709;DHT22;7445;50.774;4.944;2023-07-20T19:34:25;18.20;99.90
14709;DHT22;7445;50.774;4.944;2023-07-20T19:36:51;18.20;99.90
14709;DHT22;7445;50.774;4.944;2023-07-20T19:39:17;18.20;99.90
14709;DHT22;7445;50.774;4.944;2023-07-20T19:41:43;18.20;99.90
14709;DHT22;7445;50.774;4.944;2023-07-20T19:44:09;18.20;99.90
14709;DHT22;7445;50.774;4.944;2023-07-20T19:46:35;18.10;99.90
14709;DHT22;7445;50.774;4.944;2023-07-20T19:49:02;18.10;99.90
14709;DHT22;7445;50.774;4.944;2023-07-20T19:51:28;18.00;99.90
14709;DHT22;7445;50.774;4.944;2023-07-20T19:53:53;17.90;99.90
14709;DHT22;7445;50.774;4.944;2023-07-20T19:56:19;17.70;99.90
14709;DHT22;7445;50.774;4.944;2023-07-20T19:58:45;17.70;99.90
14709;DHT22;7445;50.774;4.944;2023-07-20T20:01:12;17.60;99.90
14709;DHT22;7445;50.774;4.944;2023-07-20T20:03:38;17.60;99.90
14709;DHT22;7445;50.774;4.944;2023-07-20T20:06:04;17.60;99.90
14709;DHT22;7445;50.774;4.944;2023-07-20T20:08:29;17.60;99.90
14709;DHT22;7445;50.774;4.944;2023-07-20T20:10:58;17.50;99.90
14709;DHT22;7445;50.774;4.944;2023-07-20T20:13:23;17.50;99.90
14709;DHT22;7445;50.774;4.944;2023-07-20T20:15:49;17.30;99.90
14709;DHT22;7445;50.774;4.944;2023-07-20T20:18:16;17.20;99.90
14709;DHT22;7445;50.774;4.944;2023-07-20T20:20:44;17.20;99.90
14709;DHT22;7445;50.774;4.944;2023-07-20T20:23:19;17.20;99.90
14709;DHT22;7445;50.774;4.944;2023-07-20T20:25:46;17.10;99.90
14709;DHT22;7445;50.774;4.944;2023-07-20T20:28:12;17.10;99.90
14709;DHT22;7445;50.774;4.944;2023-07-20T20:30:48;17.20;99.90
14709;DHT22;7445;50.774;4.944;2023-07-20T20:33:15;17.20;99.90
14709;DHT22;7445;50.774;4.944;2023-07-20T20:35:43;17.20;99.90
14709;DHT22;7445;50.774;4.944;2023-07-20T20:38:08;17.10;99.90
14709;DHT22;7445;50.774;4.944;2023-07-20T20:40:34;17.10;99.90
14709;DHT22;7445;50.774;4.944;2023-07-20T20:43:00;17.00;99.90
14709;DHT22;7445;50.774;4.944;2023-07-20T20:45:26;16.80;99.90
14709;DHT22;7445;50.774;4.944;2023-07-20T20:47:52;16.80;99.90
14709;DHT22;7445;50.774;4.944;2023-07-20T20:50:18;16.80;99.90
14709;DHT22;7445;50.774;4.944;2023-07-20T20:52:49;16.80;99.90
14709;DHT22;7445;50.774;4.944;2023-07-20T20:55:14;16.70;99.90
14709;DHT22;7445;50.774;4.944;2023-07-20T20:57:40;16.70;99.90
14709;DHT22;7445;50.774;4.944;2023-07-20T21:00:06;16.70;99.90
14709;DHT22;7445;50.774;4.944;2023-07-20T21:02:34;16.80;99.90
14709;DHT22;7445;50.774;4.944;2023-07-20T21:05:00;16.90;99.90
14709;DHT22;7445;50.774;4.944;2023-07-20T21:07:26;16.90;99.90
14709;DHT22;7445;50.774;4.944;2023-07-20T21:09:52;16.90;99.90
14709;DHT22;7445;50.774;4.944;2023-07-20T21:12:19;16.80;99.90
14709;DHT22;7445;50.774;4.944;2023-07-20T21:14:45;16.90;99.90
14709;DHT22;7445;50.774;4.944;2023-07-20T21:17:10;16.80;99.90
14709;DHT22;7445;50.774;4.944;2023-07-20T21:19:37;16.80;99.90
14709;DHT22;7445;50.774;4.944;2023-07-20T21:22:03;16.70;99.90
14709;DHT22;7445;50.774;4.944;2023-07-20T21:24:28;16.70;99.90
14709;DHT22;7445;50.774;4.944;2023-07-20T21:26:54;16.60;99.90
14709;DHT22;7445;50.774;4.944;2023-07-20T21:29:19;16.60;99.90
14709;DHT22;7445;50.774;4.944;2023-07-20T21:31:45;16.70;99.90
